Time;durP1;ratioP1;P1;durP2;ratioP2;P2;SDS_P1;SDS_P2;PMS_P1;PMS_P2;Temp;Humidity;BMP_temperature;BMP_pressure;BME280_temperature;BME280_humidity;BME280_pressure;Samples;Min_cycle;Max_cycle;Signal;HPM_P1;HPM_P2
2024/01/18 00:01:10;;;;;;;7.53;4.75;;;;;;;-10.18;93.82;100912.94;6202912;23;20047;-59
2024/01/18 00:03:41;;;;;;;4.90;3.70;;;;;;;-9.48;93.09;101013.50;6188649;23;20024;-61
2024/01/18 00:06:12;;;;;;;4.95;3.50;;;;;;;-9.49;92.86;101020.97;6188298;23;20020;-60
2024/01/18 00:08:42;;;;;;;3.50;2.75;;;;;;;-9.62;92.16;101020.03;6203563;23;20020;-59
2024/01/18 00:11:13;;;;;;;6.20;2.53;;;;;;;-9.76;92.57;101025.69;6189108;23;20102;-61
2024/01/18 00:13:46;;;;;;;4.32;2.80;;;;;;;-9.71;92.80;101024.38;6203514;23;20419;-59
2024/01/18 00:16:16;;;;;;;3.83;2.88;;;;;;;-9.58;92.73;101019.50;6188324;23;20020;-62
2024/01/18 00:18:46;;;;;;;4.65;3.20;;;;;;;-9.42;91.80;101023.19;6203319;23;20093;-60
2024/01/18 00:21:17;;;;;;;4.05;2.70;;;;;;;-9.34;91.01;101025.53;6187481;23;20109;-60
2024/01/18 00:23:48;;;;;;;4.38;3.05;;;;;;;-9.29;90.99;101022.47;6203459;23;20031;-62
2024/01/18 00:26:18;;;;;;;4.45;3.13;;;;;;;-9.33;90.25;101034.03;6188361;23;20016;-59
2024/01/18 00:28:50;;;;;;;3.90;2.97;;;;;;;-9.34;90.09;101033.13;6203809;23;20063;-62
2024/01/18 00:31:21;;;;;;;4.60;2.65;;;;;;;-9.34;90.06;101027.19;6188484;23;20055;-61
2024/01/18 00:33:52;;;;;;;4.68;3.08;;;;;;;-9.33;89.90;101028.97;6203444;23;20020;-61
2024/01/18 00:36:23;;;;;;;3.53;2.95;;;;;;;-9.53;90.40;101013.91;6188414;23;20947;-60
2024/01/18 00:38:53;;;;;;;4.55;3.08;;;;;;;-9.38;90.11;101020.13;6203280;23;20020;-61
2024/01/18 00:41:31;;;;;;;4.00;2.80;;;;;;;-9.25;90.00;101021.94;6188105;23;20036;-62
2024/01/18 00:44:03;;;;;;;3.10;2.70;;;;;;;-9.24;89.73;101028.75;6203981;23;20030;-59
2024/01/18 00:46:33;;;;;;;4.50;2.75;;;;;;;-9.20;89.46;101020.63;6188451;23;20028;-59
2024/01/18 00:49:04;;;;;;;3.92;2.83;;;;;;;-9.24;89.46;101014.44;6203045;23;20076;-61
2024/01/18 00:51:35;;;;;;;4.97;2.90;;;;;;;-9.33;89.48;101011.25;6187520;23;20412;-61
2024/01/18 00:54:06;;;;;;;4.97;2.90;;;;;;;-9.25;89.87;101017.75;6202483;23;20301;-60
2024/01/18 00:56:36;;;;;;;5.13;3.55;;;;;;;-9.10;89.63;101012.06;6187557;23;20028;-63
2024/01/18 00:59:09;;;;;;;3.53;2.90;;;;;;;-9.13;88.65;101008.53;6202776;23;20020;-61
2024/01/18 01:01:39;;;;;;;7.13;2.88;;;;;;;-9.10;88.58;101019.66;6187934;23;20055;-61
2024/01/18 01:04:09;;;;;;;3.90;2.85;;;;;;;-9.16;88.63;101017.53;6202520;23;20020;-63
2024/01/18 01:06:40;;;;;;;2.72;2.47;;;;;;;-9.24;88.71;101013.56;6187829;23;20024;-61
2024/01/18 01:09:11;;;;;;;3.65;3.03;;;;;;;-9.35;89.00;101021.25;6198671;23;20093;-62
2024/01/18 01:11:42;;;;;;;4.88;3.10;;;;;;;-9.32;89.02;101020.59;6203520;23;20031;-62
2024/01/18 01:14:14;;;;;;;3.50;2.88;;;;;;;-9.42;89.03;101028.25;6187963;23;20032;-62
2024/01/18 01:16:44;;;;;;;5.43;3.10;;;;;;;-9.42;89.86;101023.19;6201804;23;20024;-60
2024/01/18 01:19:14;;;;;;;3.58;2.55;;;;;;;-9.35;89.54;101030.50;6186059;23;20032;-59
2024/01/18 01:21:45;;;;;;;4.32;2.78;;;;;;;-9.35;89.21;101040.59;6202261;23;20028;-63
2024/01/18 01:24:15;;;;;;;3.35;2.72;;;;;;;-9.36;89.05;101033.75;6186657;23;20062;-60
2024/01/18 01:26:46;;;;;;;3.35;2.70;;;;;;;-9.34;89.22;101037.28;6202432;23;20020;-63
2024/01/18 01:29:18;;;;;;;4.95;2.85;;;;;;;-9.25;89.20;101022.81;6187723;23;20024;-63
2024/01/18 01:31:49;;;;;;;2.45;2.15;;;;;;;-9.17;88.19;101021.72;6202297;23;20085;-62
2024/01/18 01:34:19;;;;;;;3.67;2.58;;;;;;;-9.14;88.35;101027.00;6189561;23;20020;-62
2024/01/18 01:36:50;;;;;;;5.13;2.92;;;;;;;-9.11;88.21;101031.41;6204465;23;20123;-64
2024/01/18 01:39:21;;;;;;;3.78;2.90;;;;;;;-9.19;87.56;101013.13;6190057;23;20027;-65
2024/01/18 01:41:51;;;;;;;3.63;2.88;;;;;;;-9.25;87.59;101022.81;6205031;23;20111;-65
2024/01/18 01:44:24;;;;;;;4.20;2.72;;;;;;;-9.22;87.98;101017.97;6189940;23;20028;-64
2024/01/18 01:46:54;;;;;;;5.15;2.80;;;;;;;-9.09;87.48;101022.28;6205466;23;20391;-64
2024/01/18 01:49:25;;;;;;;4.47;3.00;;;;;;;-9.29;87.81;101018.28;6189896;23;20032;-62
2024/01/18 01:51:55;;;;;;;3.53;2.90;;;;;;;-9.40;88.08;101011.53;6204699;23;20797;-65
2024/01/18 01:54:29;;;;;;;4.80;3.03;;;;;;;-9.37;88.41;101006.72;6189467;23;20120;-62
2024/01/18 01:57:02;;;;;;;4.75;3.13;;;;;;;-9.48;88.81;101002.47;6205061;23;20043;-62
2024/01/18 01:59:35;;;;;;;4.03;2.55;;;;;;;-9.42;89.15;101010.53;6190085;23;20119;-60
2024/01/18 02:02:07;;;;;;;3.90;2.70;;;;;;;-9.25;89.21;101002.56;6205568;23;20081;-63
2024/01/18 02:04:38;;;;;;;5.10;2.63;;;;;;;-9.40;88.46;100991.31;6189241;23;20024;-65
2024/01/18 02:07:10;;;;;;;4.82;2.70;;;;;;;-9.38;88.77;100999.91;6204416;23;20020;-64
2024/01/18 02:09:41;;;;;;;4.43;2.78;;;;;;;-9.35;89.04;100990.00;6189786;23;20055;-61
2024/01/18 02:12:12;;;;;;;3.67;2.60;;;;;;;-9.29;89.10;100970.19;6189445;23;20036;-63
2024/01/18 02:14:46;;;;;;;3.83;3.10;;;;;;;-9.23;88.26;100980.78;6204558;23;20028;-65
2024/01/18 02:17:16;;;;;;;4.80;2.35;;;;;;;-9.09;88.16;100978.38;6190342;23;20024;-61
2024/01/18 02:19:47;;;;;;;4.47;2.83;;;;;;;-9.08;87.88;100975.06;6204553;23;20024;-61
2024/01/18 02:22:18;;;;;;;4.32;3.10;;;;;;;-9.17;87.99;100971.09;6189666;23;20024;-65
2024/01/18 02:24:52;;;;;;;3.63;2.92;;;;;;;-9.12;87.85;100976.50;6204536;23;20043;-63
2024/01/18 02:27:24;;;;;;;4.50;3.20;;;;;;;-9.10;87.53;100972.44;6188834;23;20044;-63
2024/01/18 02:29:55;;;;;;;3.20;2.50;;;;;;;-9.10;87.56;100963.97;6204287;23;20104;-63
2024/01/18 02:32:25;;;;;;;5.55;2.88;;;;;;;-8.88;87.11;100969.81;6189251;23;20081;-62
2024/01/18 02:34:56;;;;;;;3.22;2.78;;;;;;;-8.70;86.05;100976.19;6205184;23;20039;-64
2024/01/18 02:37:27;;;;;;;3.33;2.50;;;;;;;-9.01;86.24;100972.22;6189026;23;20028;-61
2024/01/18 02:39:57;;;;;;;3.58;2.85;;;;;;;-9.25;86.55;100971.31;6203816;23;20408;-62
2024/01/18 02:42:29;;;;;;;2.40;2.20;;;;;;;-9.24;86.87;100973.94;6189345;23;20058;-64
2024/01/18 02:45:03;;;;;;;3.35;2.58;;;;;;;-9.20;87.07;100975.94;6204325;23;20099;-64
2024/01/18 02:47:34;;;;;;;3.33;2.30;;;;;;;-9.22;87.45;100982.53;6189900;23;20020;-58
2024/01/18 02:50:05;;;;;;;3.03;2.72;;;;;;;-9.25;87.09;100982.31;6205763;23;20090;-65
2024/01/18 02:52:38;;;;;;;5.95;2.58;;;;;;;-9.43;86.84;100980.97;6189434;23;20024;-62
2024/01/18 02:55:09;;;;;;;3.13;2.33;;;;;;;-10.44;87.03;100838.56;6204320;23;20024;-63
2024/01/18 02:57:42;;;;;;;6.90;3.03;;;;;;;-9.71;87.37;100983.91;6188669;23;20031;-65
2024/01/18 03:00:13;;;;;;;4.63;2.80;;;;;;;-9.87;87.75;100986.06;6189595;23;20024;-65
2024/01/18 03:02:44;;;;;;;3.20;2.63;;;;;;;-9.86;88.09;100987.81;6204173;23;20034;-64
2024/01/18 03:05:14;;;;;;;3.85;2.90;;;;;;;-10.00;88.65;100997.75;6189365;23;20028;-62
2024/01/18 03:07:45;;;;;;;5.03;2.80;;;;;;;-9.98;88.70;100998.75;6204557;23;20027;-64
2024/01/18 03:10:15;;;;;;;3.05;2.80;;;;;;;-9.81;88.73;100996.63;6188889;23;20023;-60
2024/01/18 03:12:47;;;;;;;3.50;2.88;;;;;;;-9.95;88.29;101002.28;6204393;23;20697;-64
2024/01/18 03:15:18;;;;;;;4.85;3.03;;;;;;;-10.03;88.64;100989.06;6188782;23;20111;-65
2024/01/18 03:17:49;;;;;;;4.00;2.20;;;;;;;-9.96;89.17;101006.44;6203154;23;20020;-63
2024/01/18 03:20:19;;;;;;;11.80;2.55;;;;;;;-10.06;88.58;101003.97;6189345;23;20494;-61
2024/01/18 03:22:49;;;;;;;4.00;2.42;;;;;;;-10.02;89.21;101001.81;6204417;23;20099;-64
2024/01/18 03:25:20;;;;;;;4.35;2.63;;;;;;;-10.08;89.42;101000.44;6188606;23;20024;-60
2024/01/18 03:27:52;;;;;;;6.22;2.95;;;;;;;-10.57;89.81;100946.13;6203918;23;20024;-63
2024/01/18 03:30:22;;;;;;;4.15;3.05;;;;;;;-10.20;89.50;100991.16;6188938;23;20101;-63
2024/01/18 03:32:53;;;;;;;4.10;2.90;;;;;;;-10.04;90.28;101003.31;6203963;23;20020;-63
2024/01/18 03:35:23;;;;;;;4.00;3.00;;;;;;;-10.17;89.09;101000.63;6188288;23;20341;-62
2024/01/18 03:37:53;;;;;;;3.28;2.97;;;;;;;-10.19;89.08;101002.16;6204395;23;20023;-63
2024/01/18 03:40:23;;;;;;;3.80;3.05;;;;;;;-10.20;89.38;101005.44;6188921;23;20024;-65
2024/01/18 03:42:55;;;;;;;5.18;2.97;;;;;;;-10.27;89.90;101008.25;6203549;23;20028;-61
2024/01/18 03:45:26;;;;;;;4.18;3.15;;;;;;;-10.27;89.95;101009.13;6188893;23;20031;-65
2024/01/18 03:47:56;;;;;;;4.43;3.13;;;;;;;-10.45;89.86;101013.66;6203762;23;20032;-59
2024/01/18 03:50:27;;;;;;;3.42;2.83;;;;;;;-10.30;90.12;101013.09;6188636;23;20024;-66
2024/01/18 03:52:57;;;;;;;6.90;4.15;;;;;;;-10.25;89.96;101019.38;6204346;23;20058;-61
2024/01/18 03:55:28;;;;;;;6.97;3.58;;;;;;;-10.26;89.91;101015.97;6188400;23;20082;-65
2024/01/18 03:58:00;;;;;;;3.17;2.50;;;;;;;-10.21;89.16;101028.94;6203843;23;20040;-62
2024/01/18 04:00:30;;;;;;;5.47;3.25;;;;;;;-10.30;88.92;101023.22;6189092;23;20072;-63
2024/01/18 04:03:01;;;;;;;4.97;3.50;;;;;;;-10.43;90.15;101036.53;6203442;23;20028;-62
2024/01/18 04:05:31;;;;;;;4.70;3.33;;;;;;;-10.67;89.84;101022.81;6188754;23;20572;-64
2024/01/18 04:08:02;;;;;;;3.80;2.90;;;;;;;-10.64;90.53;101035.66;6204739;23;20035;-64
2024/01/18 04:10:32;;;;;;;3.70;2.97;;;;;;;-10.67;90.91;101050.59;6189149;23;20030;-64
2024/01/18 04:13:05;;;;;;;3.33;3.03;;;;;;;-10.75;91.19;101049.09;6204048;23;20028;-64
2024/01/18 04:15:35;;;;;;;7.57;3.30;;;;;;;-10.74;91.40;101049.19;6188194;23;20110;-63
2024/01/18 04:18:06;;;;;;;3.42;3.13;;;;;;;-10.69;90.88;101062.19;6203649;23;20115;-63
2024/01/18 04:20:37;;;;;;;5.30;3.38;;;;;;;-10.73;90.99;101080.38;6188086;23;20116;-63
2024/01/18 04:23:07;;;;;;;5.53;2.90;;;;;;;-10.78;91.13;101084.16;6204357;23;20103;-62
2024/01/18 04:25:37;;;;;;;3.42;2.85;;;;;;;-10.77;91.70;101085.97;6188315;23;20102;-63
2024/01/18 04:28:10;;;;;;;6.05;3.60;;;;;;;-10.97;91.31;101105.41;6203408;23;20020;-62
2024/01/18 04:30:40;;;;;;;3.90;3.03;;;;;;;-11.01;91.87;101093.25;6187840;23;20023;-62
2024/01/18 04:33:11;;;;;;;3.25;2.95;;;;;;;-11.07;91.80;101112.97;6197020;23;20032;-64
2024/01/18 04:35:41;;;;;;;4.63;3.22;;;;;;;-11.05;91.75;101115.63;6203217;23;20551;-63
2024/01/18 04:38:12;;;;;;;3.15;2.85;;;;;;;-10.95;91.42;101113.09;6188971;23;20043;-61
2024/01/18 04:40:43;;;;;;;5.47;3.40;;;;;;;-10.97;90.84;101125.59;6203051;23;20016;-62
2024/01/18 04:43:15;;;;;;;4.53;3.17;;;;;;;-10.93;90.85;101137.72;6188138;23;20027;-65
2024/01/18 04:45:46;;;;;;;3.90;2.70;;;;;;;-10.76;90.65;101136.56;6203369;23;20034;-63
2024/01/18 04:48:17;;;;;;;4.15;2.90;;;;;;;-10.71;90.60;101139.47;6188217;23;20054;-62
2024/01/18 04:50:47;;;;;;;4.18;3.20;;;;;;;-10.83;89.99;101141.88;6203017;23;20020;-61
2024/01/18 04:53:18;;;;;;;6.63;3.58;;;;;;;-10.77;90.65;101138.97;6188348;23;20027;-65
2024/01/18 04:55:48;;;;;;;3.88;2.80;;;;;;;-10.69;90.85;101143.00;6203995;23;20027;-62
2024/01/18 04:58:21;;;;;;;4.57;3.28;;;;;;;-10.77;90.44;101144.03;6188419;23;20041;-61
2024/01/18 05:00:52;;;;;;;4.75;3.47;;;;;;;-10.73;90.79;101156.13;6203029;23;20032;-65
2024/01/18 05:03:22;;;;;;;3.60;2.85;;;;;;;-10.63;90.21;101153.63;6188083;23;20087;-63
2024/01/18 05:05:53;;;;;;;7.65;2.80;;;;;;;-10.71;89.97;101152.09;6203080;23;20102;-62
2024/01/18 05:08:23;;;;;;;4.40;2.90;;;;;;;-10.59;90.24;101159.81;6188070;23;20051;-64
2024/01/18 05:10:54;;;;;;;3.85;2.95;;;;;;;-10.54;89.56;101154.38;6203586;23;20024;-61
2024/01/18 05:13:26;;;;;;;7.15;3.10;;;;;;;-10.50;89.27;101156.41;6188295;23;20066;-65
2024/01/18 05:15:59;;;;;;;2.83;2.63;;;;;;;-10.74;89.46;101114.84;6203205;23;20444;-65
2024/01/18 05:18:30;;;;;;;3.35;3.05;;;;;;;-10.57;89.65;101160.81;6188594;23;20111;-62
2024/01/18 05:21:00;;;;;;;4.15;2.85;;;;;;;-10.61;89.92;101161.31;6203005;23;20028;-60
2024/01/18 05:23:31;;;;;;;2.90;2.60;;;;;;;-10.58;89.59;101177.63;6188913;23;20025;-63
2024/01/18 05:26:01;;;;;;;3.47;2.88;;;;;;;-10.67;89.87;101171.81;6203889;23;20375;-61
2024/01/18 05:28:33;;;;;;;4.68;2.85;;;;;;;-10.68;90.05;101175.09;6188349;23;20018;-65
2024/01/18 05:31:06;;;;;;;3.22;2.80;;;;;;;-10.71;89.85;101179.88;6202988;23;20051;-64
2024/01/18 05:33:36;;;;;;;3.25;2.75;;;;;;;-10.71;89.96;101172.28;6187216;23;20028;-64
2024/01/18 05:36:08;;;;;;;4.30;3.42;;;;;;;-10.80;90.08;101194.28;6202686;23;20093;-61
2024/01/18 05:38:38;;;;;;;6.63;3.17;;;;;;;-10.87;90.99;101208.91;6187764;23;20047;-63
2024/01/18 05:41:11;;;;;;;3.70;3.15;;;;;;;-10.90;90.96;101198.56;6199182;23;20097;-62
2024/01/18 05:43:43;;;;;;;4.80;3.33;;;;;;;-10.93;91.33;101203.34;6202846;23;20078;-65
2024/01/18 05:46:13;;;;;;;5.35;3.78;;;;;;;-11.05;91.64;101192.22;6188106;23;20043;-62
2024/01/18 05:48:44;;;;;;;5.97;3.13;;;;;;;-11.05;92.26;101217.47;6202930;23;20020;-65
2024/01/18 05:51:15;;;;;;;3.17;2.85;;;;;;;-11.08;92.17;101214.69;6187577;23;20032;-64
2024/01/18 05:53:45;;;;;;;4.45;3.22;;;;;;;-11.21;92.35;101226.97;6202613;23;20020;-64
2024/01/18 05:56:16;;;;;;;4.90;2.83;;;;;;;-11.30;92.52;101215.38;6188256;23;20371;-65
2024/01/18 05:58:48;;;;;;;5.03;2.75;;;;;;;-11.32;93.48;101236.16;6202777;23;20020;-61
2024/01/18 06:01:18;;;;;;;6.30;3.60;;;;;;;-11.43;94.38;101252.00;6187812;23;20034;-62
2024/01/18 06:03:49;;;;;;;8.30;3.72;;;;;;;-11.43;94.43;101257.94;6202620;22;20107;-63
2024/01/18 06:06:19;;;;;;;4.53;3.20;;;;;;;-11.44;95.01;101246.06;6188011;23;20437;-62
2024/01/18 06:08:50;;;;;;;7.60;3.55;;;;;;;-11.50;95.73;101260.69;6202489;23;20128;-61
2024/01/18 06:11:20;;;;;;;5.80;3.70;;;;;;;-11.54;95.73;101253.59;6187469;23;20028;-62
2024/01/18 06:13:52;;;;;;;7.13;3.80;;;;;;;-11.44;96.37;101266.25;6203076;23;20028;-63
2024/01/18 06:16:23;;;;;;;6.43;3.58;;;;;;;-11.44;96.24;101276.34;6187593;23;20070;-64
2024/01/18 06:18:53;;;;;;;4.90;3.65;;;;;;;-11.43;96.53;101273.09;6202495;23;20540;-62
2024/01/18 06:21:24;;;;;;;4.60;3.35;;;;;;;-11.42;96.55;101274.84;6189294;23;20055;-64
2024/01/18 06:23:54;;;;;;;4.53;3.20;;;;;;;-11.39;96.85;101285.19;6204222;23;20024;-62
2024/01/18 06:26:25;;;;;;;9.40;4.25;;;;;;;-11.38;96.70;101284.47;6189796;23;20024;-64
2024/01/18 06:28:58;;;;;;;3.85;3.20;;;;;;;-11.40;96.67;101298.56;6204891;23;20692;-61
2024/01/18 06:31:29;;;;;;;5.03;4.05;;;;;;;-11.45;97.13;101294.75;6189584;23;20095;-59
2024/01/18 06:33:59;;;;;;;9.85;3.88;;;;;;;-11.45;97.12;101294.75;6203626;23;20090;-63
2024/01/18 06:36:30;;;;;;;6.75;3.65;;;;;;;-11.50;96.88;101296.00;6189748;23;20036;-60
2024/01/18 06:39:00;;;;;;;7.13;3.92;;;;;;;-11.55;97.23;101304.78;6204349;23;20032;-61
2024/01/18 06:41:31;;;;;;;9.25;4.18;;;;;;;-11.58;97.37;101312.97;6189973;23;20021;-59
2024/01/18 06:44:04;;;;;;;6.57;4.28;;;;;;;-11.66;97.27;101318.94;6205149;23;20020;-62
2024/01/18 06:46:35;;;;;;;6.85;3.85;;;;;;;-11.73;97.65;101320.06;6188919;23;20028;-60
2024/01/18 06:49:05;;;;;;;8.60;4.10;;;;;;;-11.81;97.71;101318.47;6204323;23;20050;-63
2024/01/18 06:51:36;;;;;;;4.38;3.10;;;;;;;-11.80;97.62;101335.38;6189130;23;20024;-61
2024/01/18 06:54:06;;;;;;;8.30;3.95;;;;;;;-11.81;97.48;101331.06;6203738;23;20020;-59
2024/01/18 06:56:37;;;;;;;6.05;3.90;;;;;;;-11.81;97.47;101328.56;6189219;23;20032;-63
2024/01/18 06:59:09;;;;;;;7.07;3.90;;;;;;;-11.84;97.21;101337.50;6204700;23;20403;-62
2024/01/18 07:01:39;;;;;;;5.65;4.00;;;;;;;-11.88;97.30;101346.47;6188473;23;20023;-62
2024/01/18 07:04:10;;;;;;;7.82;4.38;;;;;;;-11.91;97.38;101351.19;6202337;23;20024;-59
2024/01/18 07:06:40;;;;;;;5.32;3.88;;;;;;;-11.95;97.14;101354.22;6204224;23;20020;-62
2024/01/18 07:09:11;;;;;;;5.88;4.03;;;;;;;-12.05;97.32;101361.69;6190670;23;20024;-61
2024/01/18 07:11:42;;;;;;;8.52;4.10;;;;;;;-12.18;97.66;101364.69;6204162;23;20925;-61
2024/01/18 07:14:14;;;;;;;3.90;3.40;;;;;;;-12.16;97.38;101384.25;6189497;23;20066;-63
2024/01/18 07:16:45;;;;;;;5.07;3.53;;;;;;;-12.25;97.78;101382.53;6204069;23;20102;-61
2024/01/18 07:19:15;;;;;;;4.68;3.65;;;;;;;-12.34;97.73;101382.56;6188653;23;20056;-61
2024/01/18 07:21:46;;;;;;;4.70;3.72;;;;;;;-12.38;97.59;101376.38;6203881;23;20028;-62
2024/01/18 07:24:16;;;;;;;4.68;3.03;;;;;;;-12.42;97.89;101398.59;6188897;23;20147;-62
2024/01/18 07:26:47;;;;;;;4.95;3.75;;;;;;;-12.48;97.62;101398.00;6203458;23;20020;-62
2024/01/18 07:29:19;;;;;;;5.10;3.97;;;;;;;-12.55;97.94;101400.69;6188461;23;20023;-62
2024/01/18 07:31:49;;;;;;;4.57;3.63;;;;;;;-12.57;97.88;101397.19;6203863;23;20387;-61
2024/01/18 07:34:20;;;;;;;4.10;3.45;;;;;;;-12.68;97.35;101406.22;6188454;23;20047;-60
2024/01/18 07:36:51;;;;;;;4.05;3.65;;;;;;;-12.73;97.48;101410.81;6203865;23;20082;-62
2024/01/18 07:39:21;;;;;;;8.20;4.47;;;;;;;-12.82;97.85;101420.03;6188695;23;20024;-62
2024/01/18 07:41:52;;;;;;;5.05;3.60;;;;;;;-12.86;98.05;101407.91;6202227;23;20063;-62
2024/01/18 07:44:24;;;;;;;4.88;3.97;;;;;;;-12.87;98.09;101426.25;6188366;23;20028;-60
2024/01/18 07:46:54;;;;;;;4.45;3.78;;;;;;;-12.93;98.48;101426.53;6203913;23;20516;-59
2024/01/18 07:49:25;;;;;;;7.80;4.35;;;;;;;-12.95;98.96;101427.13;6188891;23;20024;-61
2024/01/18 07:51:55;;;;;;;7.28;3.67;;;;;;;-13.01;98.68;101429.09;6203091;23;20047;-62
2024/01/18 07:54:27;;;;;;;6.10;4.05;;;;;;;-12.97;98.73;101448.78;6188953;23;20090;-63
2024/01/18 07:56:58;;;;;;;5.70;4.10;;;;;;;-13.00;98.92;101443.44;6203615;23;20749;-62
2024/01/18 07:59:30;;;;;;;5.97;3.53;;;;;;;-13.01;98.97;101454.25;6188823;23;20020;-63
2024/01/18 08:02:00;;;;;;;8.13;4.38;;;;;;;-13.00;99.11;101464.47;6204224;23;20124;-63
2024/01/18 08:04:31;;;;;;;5.07;3.85;;;;;;;-13.04;99.13;101448.16;6188987;23;20021;-62
2024/01/18 08:07:01;;;;;;;3.47;3.00;;;;;;;-13.01;99.29;101461.78;6204119;23;20408;-59
2024/01/18 08:09:32;;;;;;;8.73;4.65;;;;;;;-13.09;99.81;101469.47;6189221;23;20016;-62
2024/01/18 08:12:04;;;;;;;5.35;4.07;;;;;;;-13.07;99.18;101473.03;6203355;23;20058;-62
2024/01/18 08:14:42;;;;;;;7.57;4.40;;;;;;;-13.09;99.59;101484.56;6188333;23;20448;-58
2024/01/18 08:17:13;;;;;;;4.50;3.88;;;;;;;-13.10;99.73;101474.38;6187776;23;20098;-60
2024/01/18 08:19:43;;;;;;;5.10;3.95;;;;;;;-13.15;100.00;101473.03;6203342;23;20082;-61
2024/01/18 08:22:16;;;;;;;4.97;3.42;;;;;;;-13.15;99.71;101489.03;6188114;23;20024;-61
2024/01/18 08:24:47;;;;;;;5.53;3.55;;;;;;;-13.18;99.76;101492.84;6203275;23;20050;-61
2024/01/18 08:27:17;;;;;;;3.75;2.95;;;;;;;-13.19;99.23;101497.00;6188197;23;20031;-59
2024/01/18 08:29:50;;;;;;;3.90;3.60;;;;;;;-13.42;99.44;101466.25;6202596;23;20383;-60
2024/01/18 08:32:20;;;;;;;5.20;4.00;;;;;;;-13.25;99.28;101511.50;6187252;23;20020;-63
2024/01/18 08:34:50;;;;;;;7.30;3.45;;;;;;;-13.27;99.19;101523.06;6202947;23;20507;-61
2024/01/18 08:37:21;;;;;;;5.25;3.78;;;;;;;-13.30;99.33;101512.72;6188050;23;20048;-63
2024/01/18 08:39:52;;;;;;;4.32;3.42;;;;;;;-13.76;99.04;101452.88;6202465;23;20090;-63
2024/01/18 08:42:22;;;;;;;7.55;4.10;;;;;;;-13.38;99.03;101523.63;6187610;23;20024;-61
2024/01/18 08:44:55;;;;;;;7.55;3.90;;;;;;;-13.37;99.10;101530.44;6202930;23;20030;-60
2024/01/18 08:47:26;;;;;;;5.93;3.53;;;;;;;-13.49;98.80;101520.94;6186823;23;20024;-59
2024/01/18 08:49:57;;;;;;;6.70;4.30;;;;;;;-13.44;98.77;101533.09;6202623;23;20082;-63
2024/01/18 08:52:27;;;;;;;5.40;4.30;;;;;;;-13.51;98.78;101532.47;6187380;23;20718;-64
2024/01/18 08:54:58;;;;;;;7.30;4.63;;;;;;;-13.49;99.07;101545.19;6202566;23;20465;-61
2024/01/18 08:57:31;;;;;;;9.30;4.03;;;;;;;-13.49;99.11;101543.56;6188166;23;20023;-60
2024/01/18 09:00:04;;;;;;;6.43;4.22;;;;;;;-13.52;99.76;101550.81;6203190;23;20043;-64
2024/01/18 09:02:34;;;;;;;6.93;4.35;;;;;;;-13.47;99.64;101559.69;6187248;23;20016;-60
2024/01/18 09:05:06;;;;;;;6.00;3.65;;;;;;;-13.44;99.74;101558.22;6202964;23;20486;-61
2024/01/18 09:07:37;;;;;;;5.75;4.15;;;;;;;-13.44;99.64;101563.25;6187968;23;20795;-63
2024/01/18 09:10:08;;;;;;;7.10;4.43;;;;;;;-13.47;99.60;101564.72;6202901;23;20020;-61
2024/01/18 09:12:39;;;;;;;4.70;4.00;;;;;;;-13.42;100.00;101576.88;6187393;23;20024;-64
2024/01/18 09:15:12;;;;;;;6.03;4.05;;;;;;;-13.38;99.97;101581.47;6202692;23;20074;-63
2024/01/18 09:17:43;;;;;;;5.65;3.90;;;;;;;-13.40;100.00;101575.38;6187496;23;20059;-60
2024/01/18 09:20:14;;;;;;;7.32;4.38;;;;;;;-13.35;99.79;101584.28;6188737;23;20048;-62
2024/01/18 09:22:45;;;;;;;8.13;5.10;;;;;;;-13.35;100.00;101589.31;6203126;23;20016;-62
2024/01/18 09:25:15;;;;;;;5.15;4.10;;;;;;;-13.33;99.85;101582.81;6187664;23;20077;-61
2024/01/18 09:27:46;;;;;;;5.82;3.70;;;;;;;-13.30;100.00;101595.72;6202247;23;20452;-62
2024/01/18 09:30:19;;;;;;;8.10;4.30;;;;;;;-13.28;100.00;101592.59;6187990;23;20449;-60
2024/01/18 09:32:50;;;;;;;6.82;4.13;;;;;;;-13.26;100.00;101586.03;6202823;23;20023;-60
2024/01/18 09:35:21;;;;;;;3.78;3.10;;;;;;;-13.24;99.96;101598.78;6187611;23;20155;-60
2024/01/18 09:37:51;;;;;;;7.38;4.65;;;;;;;-13.29;100.00;101584.91;6203041;23;20325;-62
2024/01/18 09:40:22;;;;;;;5.50;4.03;;;;;;;-13.21;100.00;101604.09;6187939;23;20028;-63
2024/01/18 09:42:55;;;;;;;5.80;4.53;;;;;;;-13.15;100.00;101614.81;6202463;23;20645;-62
2024/01/18 09:45:32;;;;;;;7.95;4.15;;;;;;;-13.16;100.00;101602.94;6187817;23;20123;-63
2024/01/18 09:48:04;;;;;;;3.53;3.10;;;;;;;-13.13;99.57;101618.31;6202190;23;20055;-62
2024/01/18 09:50:41;;;;;;;6.18;3.90;;;;;;;-13.13;99.73;101622.47;6187535;23;20028;-60
2024/01/18 09:53:12;;;;;;;5.00;3.80;;;;;;;-13.15;99.58;101629.88;6193081;23;20024;-62
2024/01/18 09:55:43;;;;;;;4.40;3.15;;;;;;;-13.16;99.03;101628.09;6204968;23;20047;-61
2024/01/18 09:58:15;;;;;;;6.65;3.65;;;;;;;-13.19;99.35;101632.81;6189530;23;20047;-60
2024/01/18 10:00:55;;;;;;;6.03;3.92;;;;;;;-13.23;99.05;101635.75;6204497;23;20095;-62
2024/01/18 10:03:27;;;;;;;5.80;4.75;;;;;;;-13.29;98.63;101636.06;6189376;23;20518;-62
2024/01/18 10:05:58;;;;;;;5.28;3.67;;;;;;;-13.31;98.64;101641.69;6203610;23;20024;-61
2024/01/18 10:08:29;;;;;;;7.75;4.90;;;;;;;-13.39;98.95;101643.44;6189427;23;20397;-61
2024/01/18 10:10:59;;;;;;;5.47;3.97;;;;;;;-13.36;98.82;101647.88;6205395;23;20607;-62
2024/01/18 10:13:30;;;;;;;5.03;3.58;;;;;;;-13.37;98.95;101636.06;6190243;23;20446;-63
2024/01/18 10:16:03;;;;;;;3.55;3.13;;;;;;;-13.38;98.57;101651.88;6204614;23;20073;-62
2024/01/18 10:18:34;;;;;;;3.30;3.00;;;;;;;-13.41;98.63;101654.06;6188788;23;20047;-59
2024/01/18 10:21:06;;;;;;;3.78;3.47;;;;;;;-13.41;98.45;101664.13;6204011;23;20027;-61
2024/01/18 10:23:36;;;;;;;8.77;3.85;;;;;;;-13.43;98.28;101660.56;6188709;23;20020;-60
2024/01/18 10:26:07;;;;;;;3.75;3.40;;;;;;;-13.47;98.04;101645.19;6204278;23;20085;-61
2024/01/18 10:28:38;;;;;;;4.72;3.75;;;;;;;-13.53;98.42;101669.69;6188528;23;20054;-60
2024/01/18 10:31:11;;;;;;;3.97;3.60;;;;;;;-13.53;98.46;101674.72;6203948;23;20114;-59
2024/01/18 10:33:42;;;;;;;4.50;3.67;;;;;;;-13.54;98.25;101693.06;6188980;23;20024;-60
2024/01/18 10:36:13;;;;;;;5.05;3.60;;;;;;;-13.58;98.39;101685.91;6189277;23;20034;-59
2024/01/18 10:38:44;;;;;;;6.35;4.93;;;;;;;-13.57;98.32;101697.78;6203538;23;20082;-60
2024/01/18 10:41:20;;;;;;;4.57;3.78;;;;;;;-13.58;98.19;101698.50;6164074;23;20024;-61
2024/01/18 10:43:51;;;;;;;5.55;3.22;;;;;;;-13.76;98.21;101686.56;6204430;23;20607;-62
2024/01/18 10:46:23;;;;;;;4.78;3.55;;;;;;;-13.67;98.09;101710.13;6189074;23;20326;-60
2024/01/18 10:48:54;;;;;;;6.28;3.70;;;;;;;-13.66;97.89;101721.97;6204017;23;20123;-61
2024/01/18 10:51:26;;;;;;;5.13;3.75;;;;;;;-13.69;98.18;101721.66;6189452;23;20024;-61
2024/01/18 10:53:57;;;;;;;4.88;3.70;;;;;;;-13.72;98.29;101716.31;6204023;23;20081;-61
2024/01/18 10:56:29;;;;;;;9.02;3.80;;;;;;;-13.74;98.18;101725.31;6189892;23;20039;-60
2024/01/18 10:59:00;;;;;;;4.80;3.97;;;;;;;-13.88;98.06;101707.91;6204951;23;20802;-62
2024/01/18 11:01:34;;;;;;;8.00;4.50;;;;;;;-13.79;98.11;101728.97;6189854;23;20099;-62
2024/01/18 11:04:06;;;;;;;4.97;3.78;;;;;;;-13.79;97.93;101731.50;6204317;23;20031;-58
2024/01/18 11:06:38;;;;;;;4.47;4.03;;;;;;;-13.83;97.91;101731.88;6188088;23;20107;-61
2024/01/18 11:09:12;;;;;;;5.28;3.80;;;;;;;-13.82;97.95;101743.75;6204168;23;20028;-62
2024/01/18 11:11:43;;;;;;;4.03;3.67;;;;;;;-13.84;97.94;101741.06;6189073;23;20027;-60
2024/01/18 11:14:15;;;;;;;4.72;4.10;;;;;;;-13.87;97.89;101754.94;6189419;23;20024;-61
2024/01/18 11:16:47;;;;;;;5.20;3.75;;;;;;;-13.87;98.14;101752.44;6204443;23;20092;-60
2024/01/18 11:19:39;;;;;;;4.22;3.72;;;;;;;-13.87;98.11;101765.00;6188605;23;20578;-60
2024/01/18 11:22:14;;;;;;;6.97;4.38;;;;;;;-13.90;97.91;101763.06;6203965;23;20016;-61
2024/01/18 11:24:44;;;;;;;7.68;3.78;;;;;;;-13.93;97.36;101760.19;6189144;23;20105;-59
2024/01/18 11:27:22;;;;;;;4.50;3.55;;;;;;;-13.97;97.57;101764.00;6188753;23;20027;-59
2024/01/18 11:29:53;;;;;;;4.30;3.65;;;;;;;-14.13;97.43;101750.56;6174196;23;20024;-60
2024/01/18 11:32:25;;;;;;;4.50;4.10;;;;;;;-14.02;97.53;101779.34;6159805;23;20024;-61
2024/01/18 11:35:09;;;;;;;6.30;3.83;;;;;;;-14.09;97.20;101777.78;6174174;23;20020;-59
2024/01/18 11:37:40;;;;;;;5.80;4.68;;;;;;;-14.16;97.58;101778.75;6159291;23;20079;-61